Navilleton, Indiana
Current Conditions -  °F | °C
As of 12:56 AM on Saturday 20 Dec 2014 (Local Time) from KSDF Reporting Station
Overcast Overcast  
Wind Chill: 31°   Ceiling: 9000
Heat Index: 31°   Visibility: 9mi
Dew Point: 22°   Wind: 3mph
Humidity: 69%   Direction: 100°E
Pressure: 30.28"   Gusts: NA
Location:  38.3602°N, 85.8979°W
Report Text: KSDF 200556Z 10003KT 9SM OVC090 M01/M06 A3028 RMK AO2 SLP257 T10061056 11006 21017 53000
Loading
Personal Weather Stations






























Interactive Weather Map New forecast layout! Learn more

10-Day Weather Forecast

Advertisements
Track Severe Weather on mobile